sensor_id;sensor_type;location;lat;lon;timestamp;P1;durP1;ratioP1;P2;durP2;ratioP2
10110;SDS011;5095;49.796;9.934;2022-11-14T00:02:03;11.10;;;8.17;;
10110;SDS011;5095;49.796;9.934;2022-11-14T00:04:29;12.20;;;8.33;;
10110;SDS011;5095;49.796;9.934;2022-11-14T00:06:55;12.83;;;8.33;;
10110;SDS011;5095;49.796;9.934;2022-11-14T00:09:25;11.43;;;8.10;;
10110;SDS011;5095;49.796;9.934;2022-11-14T00:11:51;13.67;;;9.23;;
10110;SDS011;5095;49.796;9.934;2022-11-14T00:14:18;11.90;;;7.80;;
10110;SDS011;5095;49.796;9.934;2022-11-14T00:16:44;11.33;;;8.03;;
10110;SDS011;5095;49.796;9.934;2022-11-14T00:19:10;11.13;;;7.67;;
10110;SDS011;5095;49.796;9.934;2022-11-14T00:21:36;11.87;;;8.83;;
10110;SDS011;5095;49.796;9.934;2022-11-14T00:24:02;10.63;;;8.53;;
10110;SDS011;5095;49.796;9.934;2022-11-14T00:26:29;9.87;;;7.17;;
10110;SDS011;5095;49.796;9.934;2022-11-14T00:28:55;11.20;;;7.63;;
10110;SDS011;5095;49.796;9.934;2022-11-14T00:31:21;10.97;;;8.10;;
10110;SDS011;5095;49.796;9.934;2022-11-14T00:33:47;10.73;;;8.37;;
10110;SDS011;5095;49.796;9.934;2022-11-14T00:36:14;11.17;;;7.97;;
10110;SDS011;5095;49.796;9.934;2022-11-14T00:38:40;11.73;;;8.33;;
10110;SDS011;5095;49.796;9.934;2022-11-14T00:41:06;11.27;;;8.33;;
10110;SDS011;5095;49.796;9.934;2022-11-14T00:43:32;10.73;;;8.73;;
10110;SDS011;5095;49.796;9.934;2022-11-14T00:45:58;16.47;;;8.63;;
10110;SDS011;5095;49.796;9.934;2022-11-14T00:48:23;10.40;;;7.70;;
10110;SDS011;5095;49.796;9.934;2022-11-14T00:50:49;8.73;;;6.87;;
10110;SDS011;5095;49.796;9.934;2022-11-14T00:53:15;10.33;;;7.03;;
10110;SDS011;5095;49.796;9.934;2022-11-14T00:55:42;11.40;;;7.80;;
10110;SDS011;5095;49.796;9.934;2022-11-14T00:58:08;14.60;;;8.90;;
10110;SDS011;5095;49.796;9.934;2022-11-14T01:00:34;11.77;;;8.87;;
10110;SDS011;5095;49.796;9.934;2022-11-14T01:03:00;12.37;;;7.93;;
10110;SDS011;5095;49.796;9.934;2022-11-14T01:05:26;13.13;;;7.63;;
10110;SDS011;5095;49.796;9.934;2022-11-14T01:07:52;11.23;;;7.77;;
10110;SDS011;5095;49.796;9.934;2022-11-14T01:10:18;11.73;;;7.90;;
10110;SDS011;5095;49.796;9.934;2022-11-14T01:12:45;9.67;;;7.30;;
10110;SDS011;5095;49.796;9.934;2022-11-14T01:15:11;10.70;;;7.90;;
10110;SDS011;5095;49.796;9.934;2022-11-14T01:17:37;11.00;;;7.17;;
10110;SDS011;5095;49.796;9.934;2022-11-14T01:20:03;11.80;;;7.00;;
10110;SDS011;5095;49.796;9.934;2022-11-14T01:22:29;10.00;;;7.07;;
10110;SDS011;5095;49.796;9.934;2022-11-14T01:24:55;10.00;;;7.30;;
10110;SDS011;5095;49.796;9.934;2022-11-14T01:27:22;9.80;;;7.40;;
10110;SDS011;5095;49.796;9.934;2022-11-14T01:29:48;10.77;;;7.70;;
10110;SDS011;5095;49.796;9.934;2022-11-14T01:32:15;9.17;;;7.17;;
10110;SDS011;5095;49.796;9.934;2022-11-14T01:34:41;10.40;;;7.03;;
10110;SDS011;5095;49.796;9.934;2022-11-14T01:37:07;11.33;;;7.10;;
10110;SDS011;5095;49.796;9.934;2022-11-14T01:39:33;13.37;;;7.87;;
10110;SDS011;5095;49.796;9.934;2022-11-14T01:41:59;13.77;;;8.23;;
10110;SDS011;5095;49.796;9.934;2022-11-14T01:47:10;10.97;;;7.63;;
10110;SDS011;5095;49.796;9.934;2022-11-14T01:49:43;10.07;;;6.90;;
10110;SDS011;5095;49.796;9.934;2022-11-14T01:54:39;10.20;;;6.93;;
10110;SDS011;5095;49.796;9.934;2022-11-14T01:57:06;10.47;;;7.17;;
10110;SDS011;5095;49.796;9.934;2022-11-14T01:59:36;9.67;;;6.80;;
10110;SDS011;5095;49.796;9.934;2022-11-14T02:02:05;10.33;;;7.90;;
10110;SDS011;5095;49.796;9.934;2022-11-14T02:04:32;10.23;;;7.50;;
10110;SDS011;5095;49.796;9.934;2022-11-14T02:07:01;10.70;;;7.60;;
10110;SDS011;5095;49.796;9.934;2022-11-14T02:09:29;11.83;;;7.80;;
10110;SDS011;5095;49.796;9.934;2022-11-14T02:11:56;10.60;;;8.20;;
10110;SDS011;5095;49.796;9.934;2022-11-14T02:14:23;9.80;;;7.60;;
10110;SDS011;5095;49.796;9.934;2022-11-14T02:16:49;11.53;;;7.50;;
10110;SDS011;5095;49.796;9.934;2022-11-14T02:19:15;9.53;;;6.87;;
10110;SDS011;5095;49.796;9.934;2022-11-14T02:21:42;10.00;;;7.10;;
10110;SDS011;5095;49.796;9.934;2022-11-14T02:24:08;10.97;;;7.00;;
10110;SDS011;5095;49.796;9.934;2022-11-14T02:26:35;10.07;;;7.13;;
10110;SDS011;5095;49.796;9.934;2022-11-14T02:29:01;10.40;;;7.10;;
10110;SDS011;5095;49.796;9.934;2022-11-14T02:31:27;12.00;;;7.20;;
10110;SDS011;5095;49.796;9.934;2022-11-14T02:33:53;10.20;;;6.83;;
10110;SDS011;5095;49.796;9.934;2022-11-14T02:36:19;9.80;;;7.63;;
10110;SDS011;5095;49.796;9.934;2022-11-14T02:38:46;13.77;;;10.40;;
10110;SDS011;5095;49.796;9.934;2022-11-14T02:41:12;10.40;;;7.20;;
10110;SDS011;5095;49.796;9.934;2022-11-14T02:43:38;8.60;;;6.60;;
10110;SDS011;5095;49.796;9.934;2022-11-14T02:46:04;9.23;;;6.50;;
10110;SDS011;5095;49.796;9.934;2022-11-14T02:48:30;10.20;;;6.60;;
10110;SDS011;5095;49.796;9.934;2022-11-14T02:50:56;9.20;;;7.03;;
10110;SDS011;5095;49.796;9.934;2022-11-14T02:53:22;9.17;;;6.53;;
10110;SDS011;5095;49.796;9.934;2022-11-14T02:55:48;8.83;;;6.77;;
10110;SDS011;5095;49.796;9.934;2022-11-14T02:58:14;9.20;;;7.07;;
10110;SDS011;5095;49.796;9.934;2022-11-14T03:00:39;10.10;;;6.97;;
10110;SDS011;5095;49.796;9.934;2022-11-14T03:03:05;10.77;;;7.03;;
10110;SDS011;5095;49.796;9.934;2022-11-14T03:05:31;11.07;;;7.40;;
10110;SDS011;5095;49.796;9.934;2022-11-14T03:07:57;10.20;;;7.10;;
10110;SDS011;5095;49.796;9.934;2022-11-14T03:10:24;9.90;;;7.10;;
10110;SDS011;5095;49.796;9.934;2022-11-14T03:12:53;10.33;;;7.27;;
10110;SDS011;5095;49.796;9.934;2022-11-14T03:15:19;10.13;;;6.97;;
10110;SDS011;5095;49.796;9.934;2022-11-14T03:17:45;10.00;;;6.67;;
10110;SDS011;5095;49.796;9.934;2022-11-14T03:20:11;9.77;;;6.37;;
10110;SDS011;5095;49.796;9.934;2022-11-14T03:22:37;11.67;;;7.07;;
10110;SDS011;5095;49.796;9.934;2022-11-14T03:25:04;10.53;;;7.53;;
10110;SDS011;5095;49.796;9.934;2022-11-14T03:27:30;9.57;;;7.07;;
10110;SDS011;5095;49.796;9.934;2022-11-14T03:29:56;10.13;;;6.70;;
10110;SDS011;5095;49.796;9.934;2022-11-14T03:32:22;10.20;;;7.33;;
10110;SDS011;5095;49.796;9.934;2022-11-14T03:34:48;10.73;;;8.33;;
10110;SDS011;5095;49.796;9.934;2022-11-14T03:37:14;10.43;;;7.63;;
10110;SDS011;5095;49.796;9.934;2022-11-14T03:39:40;11.53;;;7.53;;
10110;SDS011;5095;49.796;9.934;2022-11-14T03:42:06;10.67;;;7.00;;
10110;SDS011;5095;49.796;9.934;2022-11-14T03:44:33;8.67;;;6.50;;
10110;SDS011;5095;49.796;9.934;2022-11-14T03:46:59;9.00;;;6.57;;
10110;SDS011;5095;49.796;9.934;2022-11-14T03:49:25;11.43;;;6.77;;
10110;SDS011;5095;49.796;9.934;2022-11-14T03:51:51;10.07;;;6.70;;
10110;SDS011;5095;49.796;9.934;2022-11-14T03:54:17;9.83;;;6.77;;
10110;SDS011;5095;49.796;9.934;2022-11-14T03:56:43;10.60;;;7.13;;
10110;SDS011;5095;49.796;9.934;2022-11-14T03:59:09;9.83;;;6.53;;
10110;SDS011;5095;49.796;9.934;2022-11-14T04:01:35;9.40;;;6.63;;
10110;SDS011;5095;49.796;9.934;2022-11-14T04:04:01;9.73;;;7.50;;
10110;SDS011;5095;49.796;9.934;2022-11-14T04:06:27;9.73;;;6.87;;
10110;SDS011;5095;49.796;9.934;2022-11-14T04:08:54;10.20;;;7.47;;
10110;SDS011;5095;49.796;9.934;2022-11-14T04:11:20;12.60;;;7.53;;
10110;SDS011;5095;49.796;9.934;2022-11-14T04:13:46;11.17;;;7.60;;
10110;SDS011;5095;49.796;9.934;2022-11-14T04:16:12;9.57;;;7.47;;
10110;SDS011;5095;49.796;9.934;2022-11-14T04:18:38;10.17;;;7.33;;
10110;SDS011;5095;49.796;9.934;2022-11-14T04:21:04;10.60;;;7.27;;
10110;SDS011;5095;49.796;9.934;2022-11-14T04:23:32;10.33;;;7.73;;
10110;SDS011;5095;49.796;9.934;2022-11-14T04:25:58;10.17;;;7.10;;
10110;SDS011;5095;49.796;9.934;2022-11-14T04:28:24;11.53;;;8.10;;
10110;SDS011;5095;49.796;9.934;2022-11-14T04:30:50;10.70;;;7.60;;
10110;SDS011;5095;49.796;9.934;2022-11-14T04:33:16;10.97;;;7.43;;
10110;SDS011;5095;49.796;9.934;2022-11-14T04:35:42;8.67;;;7.03;;
10110;SDS011;5095;49.796;9.934;2022-11-14T04:38:08;12.00;;;7.20;;
10110;SDS011;5095;49.796;9.934;2022-11-14T04:40:34;9.20;;;7.13;;
10110;SDS011;5095;49.796;9.934;2022-11-14T04:43:00;8.97;;;6.87;;
10110;SDS011;5095;49.796;9.934;2022-11-14T04:45:26;11.63;;;7.53;;
10110;SDS011;5095;49.796;9.934;2022-11-14T04:47:52;11.57;;;7.30;;
10110;SDS011;5095;49.796;9.934;2022-11-14T04:50:18;11.60;;;8.00;;
10110;SDS011;5095;49.796;9.934;2022-11-14T04:52:44;13.60;;;9.43;;
10110;SDS011;5095;49.796;9.934;2022-11-14T04:55:10;13.67;;;8.40;;
10110;SDS011;5095;49.796;9.934;2022-11-14T04:57:36;15.70;;;8.87;;
10110;SDS011;5095;49.796;9.934;2022-11-14T05:00:02;11.93;;;8.47;;
10110;SDS011;5095;49.796;9.934;2022-11-14T05:02:31;12.00;;;8.83;;
10110;SDS011;5095;49.796;9.934;2022-11-14T05:04:57;11.97;;;9.30;;
10110;SDS011;5095;49.796;9.934;2022-11-14T05:07:23;13.97;;;9.80;;
10110;SDS011;5095;49.796;9.934;2022-11-14T05:09:49;14.53;;;10.10;;
10110;SDS011;5095;49.796;9.934;2022-11-14T05:12:15;16.20;;;10.43;;
10110;SDS011;5095;49.796;9.934;2022-11-14T05:14:41;15.37;;;10.33;;
10110;SDS011;5095;49.796;9.934;2022-11-14T05:17:07;13.63;;;10.03;;
10110;SDS011;5095;49.796;9.934;2022-11-14T05:19:33;13.03;;;9.60;;
10110;SDS011;5095;49.796;9.934;2022-11-14T05:21:59;12.93;;;8.97;;
10110;SDS011;5095;49.796;9.934;2022-11-14T05:24:25;15.37;;;9.30;;
10110;SDS011;5095;49.796;9.934;2022-11-14T05:26:52;13.73;;;9.37;;
10110;SDS011;5095;49.796;9.934;2022-11-14T05:29:18;12.27;;;9.20;;
10110;SDS011;5095;49.796;9.934;2022-11-14T05:31:44;13.53;;;9.13;;
10110;SDS011;5095;49.796;9.934;2022-11-14T05:34:10;18.83;;;10.47;;
10110;SDS011;5095;49.796;9.934;2022-11-14T05:36:36;14.23;;;9.83;;
10110;SDS011;5095;49.796;9.934;2022-11-14T05:39:02;11.67;;;8.90;;
10110;SDS011;5095;49.796;9.934;2022-11-14T05:41:28;12.43;;;8.83;;
10110;SDS011;5095;49.796;9.934;2022-11-14T05:43:54;13.50;;;8.87;;
10110;SDS011;5095;49.796;9.934;2022-11-14T05:46:20;11.40;;;8.67;;
10110;SDS011;5095;49.796;9.934;2022-11-14T05:48:46;12.77;;;9.27;;
10110;SDS011;5095;49.796;9.934;2022-11-14T05:51:12;11.80;;;9.50;;
10110;SDS011;5095;49.796;9.934;2022-11-14T05:53:38;14.07;;;10.57;;
10110;SDS011;5095;49.796;9.934;2022-11-14T05:58:33;17.93;;;10.30;;
10110;SDS011;5095;49.796;9.934;2022-11-14T06:01:18;15.03;;;9.60;;
10110;SDS011;5095;49.796;9.934;2022-11-14T06:03:45;13.27;;;9.43;;
10110;SDS011;5095;49.796;9.934;2022-11-14T06:06:12;14.10;;;10.23;;
10110;SDS011;5095;49.796;9.934;2022-11-14T06:08:39;14.07;;;10.10;;
10110;SDS011;5095;49.796;9.934;2022-11-14T06:11:06;14.00;;;10.47;;
10110;SDS011;5095;49.796;9.934;2022-11-14T06:13:33;15.23;;;10.93;;
10110;SDS011;5095;49.796;9.934;2022-11-14T06:16:03;14.83;;;10.47;;
10110;SDS011;5095;49.796;9.934;2022-11-14T06:18:29;18.43;;;10.13;;
10110;SDS011;5095;49.796;9.934;2022-11-14T06:21:02;17.23;;;10.97;;
10110;SDS011;5095;49.796;9.934;2022-11-14T06:23:29;15.80;;;10.50;;
10110;SDS011;5095;49.796;9.934;2022-11-14T06:25:58;16.30;;;11.23;;
10110;SDS011;5095;49.796;9.934;2022-11-14T06:28:25;17.07;;;11.53;;
10110;SDS011;5095;49.796;9.934;2022-11-14T06:30:54;17.73;;;11.70;;
10110;SDS011;5095;49.796;9.934;2022-11-14T06:33:20;16.50;;;11.73;;
10110;SDS011;5095;49.796;9.934;2022-11-14T06:35:46;14.77;;;10.57;;
10110;SDS011;5095;49.796;9.934;2022-11-14T06:38:12;24.03;;;11.47;;
10110;SDS011;5095;49.796;9.934;2022-11-14T06:40:38;15.30;;;10.43;;
10110;SDS011;5095;49.796;9.934;2022-11-14T06:43:04;14.90;;;11.10;;
10110;SDS011;5095;49.796;9.934;2022-11-14T06:45:30;16.20;;;11.40;;
10110;SDS011;5095;49.796;9.934;2022-11-14T06:47:57;16.07;;;10.87;;
10110;SDS011;5095;49.796;9.934;2022-11-14T06:50:23;14.17;;;10.23;;
10110;SDS011;5095;49.796;9.934;2022-11-14T06:52:50;14.70;;;10.80;;
10110;SDS011;5095;49.796;9.934;2022-11-14T06:55:16;13.80;;;10.57;;
10110;SDS011;5095;49.796;9.934;2022-11-14T06:57:41;16.67;;;11.37;;
10110;SDS011;5095;49.796;9.934;2022-11-14T07:00:08;15.30;;;10.27;;
10110;SDS011;5095;49.796;9.934;2022-11-14T07:02:34;14.93;;;10.50;;
10110;SDS011;5095;49.796;9.934;2022-11-14T07:05:00;13.73;;;10.43;;
10110;SDS011;5095;49.796;9.934;2022-11-14T07:07:26;14.37;;;10.00;;
10110;SDS011;5095;49.796;9.934;2022-11-14T07:09:52;16.80;;;10.53;;
10110;SDS011;5095;49.796;9.934;2022-11-14T07:12:20;11.80;;;8.23;;
10110;SDS011;5095;49.796;9.934;2022-11-14T07:14:46;17.00;;;10.00;;
10110;SDS011;5095;49.796;9.934;2022-11-14T07:17:12;11.40;;;8.27;;
10110;SDS011;5095;49.796;9.934;2022-11-14T07:19:38;13.10;;;9.57;;
10110;SDS011;5095;49.796;9.934;2022-11-14T07:22:04;14.00;;;9.40;;
10110;SDS011;5095;49.796;9.934;2022-11-14T07:24:30;17.27;;;9.20;;
10110;SDS011;5095;49.796;9.934;2022-11-14T07:26:56;16.27;;;10.80;;
10110;SDS011;5095;49.796;9.934;2022-11-14T07:29:22;17.30;;;9.30;;
10110;SDS011;5095;49.796;9.934;2022-11-14T07:31:48;14.03;;;10.07;;
10110;SDS011;5095;49.796;9.934;2022-11-14T07:34:14;11.87;;;9.07;;
10110;SDS011;5095;49.796;9.934;2022-11-14T07:36:40;13.17;;;9.27;;
10110;SDS011;5095;49.796;9.934;2022-11-14T07:39:06;13.87;;;9.97;;
10110;SDS011;5095;49.796;9.934;2022-11-14T07:41:32;13.33;;;9.47;;
10110;SDS011;5095;49.796;9.934;2022-11-14T07:43:58;12.80;;;10.50;;
10110;SDS011;5095;49.796;9.934;2022-11-14T07:46:24;14.03;;;9.60;;
10110;SDS011;5095;49.796;9.934;2022-11-14T07:48:50;13.33;;;9.67;;
10110;SDS011;5095;49.796;9.934;2022-11-14T07:51:17;12.40;;;10.13;;
10110;SDS011;5095;49.796;9.934;2022-11-14T07:53:44;13.17;;;9.77;;
10110;SDS011;5095;49.796;9.934;2022-11-14T07:56:10;12.83;;;7.87;;
10110;SDS011;5095;49.796;9.934;2022-11-14T07:58:37;12.80;;;9.43;;
10110;SDS011;5095;49.796;9.934;2022-11-14T08:01:04;17.63;;;9.93;;
10110;SDS011;5095;49.796;9.934;2022-11-14T08:03:30;11.83;;;8.27;;
10110;SDS011;5095;49.796;9.934;2022-11-14T08:06:06;12.13;;;8.47;;
10110;SDS011;5095;49.796;9.934;2022-11-14T08:08:32;10.97;;;8.13;;
10110;SDS011;5095;49.796;9.934;2022-11-14T08:10:59;9.77;;;7.43;;
10110;SDS011;5095;49.796;9.934;2022-11-14T08:13:25;11.10;;;8.20;;
10110;SDS011;5095;49.796;9.934;2022-11-14T08:15:52;9.37;;;7.40;;
10110;SDS011;5095;49.796;9.934;2022-11-14T08:18:18;11.27;;;7.50;;
10110;SDS011;5095;49.796;9.934;2022-11-14T08:20:44;9.33;;;6.93;;
10110;SDS011;5095;49.796;9.934;2022-11-14T08:23:11;9.57;;;7.77;;
10110;SDS011;5095;49.796;9.934;2022-11-14T08:25:37;12.17;;;9.00;;
10110;SDS011;5095;49.796;9.934;2022-11-14T08:28:03;12.73;;;8.87;;
10110;SDS011;5095;49.796;9.934;2022-11-14T08:30:29;9.50;;;7.43;;
10110;SDS011;5095;49.796;9.934;2022-11-14T08:32:55;8.90;;;6.77;;
10110;SDS011;5095;49.796;9.934;2022-11-14T08:35:21;10.97;;;8.40;;
10110;SDS011;5095;49.796;9.934;2022-11-14T08:37:47;10.03;;;7.70;;
10110;SDS011;5095;49.796;9.934;2022-11-14T08:40:14;9.67;;;7.20;;
10110;SDS011;5095;49.796;9.934;2022-11-14T08:42:40;12.10;;;8.57;;
10110;SDS011;5095;49.796;9.934;2022-11-14T08:45:06;10.33;;;7.53;;
10110;SDS011;5095;49.796;9.934;2022-11-14T08:47:32;10.83;;;8.20;;
10110;SDS011;5095;49.796;9.934;2022-11-14T08:49:58;10.30;;;8.17;;
10110;SDS011;5095;49.796;9.934;2022-11-14T08:52:24;12.37;;;8.93;;
10110;SDS011;5095;49.796;9.934;2022-11-14T08:54:50;11.73;;;7.23;;
10110;SDS011;5095;49.796;9.934;2022-11-14T08:57:16;10.83;;;8.10;;
10110;SDS011;5095;49.796;9.934;2022-11-14T08:59:42;9.40;;;7.47;;
10110;SDS011;5095;49.796;9.934;2022-11-14T09:02:09;11.77;;;9.07;;
10110;SDS011;5095;49.796;9.934;2022-11-14T09:04:35;10.87;;;8.27;;
10110;SDS011;5095;49.796;9.934;2022-11-14T09:07:01;10.73;;;8.60;;
10110;SDS011;5095;49.796;9.934;2022-11-14T09:09:27;15.30;;;9.07;;
10110;SDS011;5095;49.796;9.934;2022-11-14T09:11:53;13.80;;;9.67;;
10110;SDS011;5095;49.796;9.934;2022-11-14T09:14:19;12.77;;;9.27;;
10110;SDS011;5095;49.796;9.934;2022-11-14T09:16:48;15.13;;;10.90;;
10110;SDS011;5095;49.796;9.934;2022-11-14T09:19:14;11.43;;;8.90;;
10110;SDS011;5095;49.796;9.934;2022-11-14T09:21:40;13.57;;;8.07;;
10110;SDS011;5095;49.796;9.934;2022-11-14T09:24:06;13.30;;;10.00;;
10110;SDS011;5095;49.796;9.934;2022-11-14T09:26:32;14.50;;;9.17;;
10110;SDS011;5095;49.796;9.934;2022-11-14T09:28:58;13.20;;;9.97;;
10110;SDS011;5095;49.796;9.934;2022-11-14T09:31:26;12.80;;;8.50;;
10110;SDS011;5095;49.796;9.934;2022-11-14T09:33:52;16.50;;;10.67;;
10110;SDS011;5095;49.796;9.934;2022-11-14T09:36:18;12.53;;;8.87;;
10110;SDS011;5095;49.796;9.934;2022-11-14T09:38:44;15.80;;;9.20;;
10110;SDS011;5095;49.796;9.934;2022-11-14T09:41:31;13.83;;;10.00;;
10110;SDS011;5095;49.796;9.934;2022-11-14T09:46:35;12.23;;;9.03;;
10110;SDS011;5095;49.796;9.934;2022-11-14T09:49:03;12.33;;;9.63;;
10110;SDS011;5095;49.796;9.934;2022-11-14T09:51:35;13.23;;;9.20;;
10110;SDS011;5095;49.796;9.934;2022-11-14T09:56:28;8.47;;;5.97;;
10110;SDS011;5095;49.796;9.934;2022-11-14T09:58:54;12.13;;;8.20;;
10110;SDS011;5095;49.796;9.934;2022-11-14T10:03:49;11.90;;;8.67;;
10110;SDS011;5095;49.796;9.934;2022-11-14T10:06:25;12.23;;;8.40;;
10110;SDS011;5095;49.796;9.934;2022-11-14T10:14:01;16.87;;;11.93;;
10110;SDS011;5095;49.796;9.934;2022-11-14T10:16:43;12.40;;;8.90;;
10110;SDS011;5095;49.796;9.934;2022-11-14T10:19:22;11.00;;;8.20;;
10110;SDS011;5095;49.796;9.934;2022-11-14T10:22:10;14.37;;;9.13;;
10110;SDS011;5095;49.796;9.934;2022-11-14T10:24:40;8.43;;;7.23;;
10110;SDS011;5095;49.796;9.934;2022-11-14T10:27:17;10.77;;;8.10;;
10110;SDS011;5095;49.796;9.934;2022-11-14T10:32:23;11.87;;;8.40;;
10110;SDS011;5095;49.796;9.934;2022-11-14T10:34:53;8.23;;;6.13;;
10110;SDS011;5095;49.796;9.934;2022-11-14T10:37:38;7.80;;;6.33;;
10110;SDS011;5095;49.796;9.934;2022-11-14T10:40:29;8.77;;;6.27;;
10110;SDS011;5095;49.796;9.934;2022-11-14T10:42:57;7.40;;;5.70;;
10110;SDS011;5095;49.796;9.934;2022-11-14T10:45:27;7.60;;;5.90;;
10110;SDS011;5095;49.796;9.934;2022-11-14T10:47:58;8.40;;;6.10;;
10110;SDS011;5095;49.796;9.934;2022-11-14T10:50:32;7.27;;;5.00;;
10110;SDS011;5095;49.796;9.934;2022-11-14T10:53:04;6.27;;;4.87;;
10110;SDS011;5095;49.796;9.934;2022-11-14T10:55:31;7.03;;;5.80;;
10110;SDS011;5095;49.796;9.934;2022-11-14T10:57:57;7.50;;;5.60;;
10110;SDS011;5095;49.796;9.934;2022-11-14T11:00:23;13.53;;;6.60;;
10110;SDS011;5095;49.796;9.934;2022-11-14T11:02:52;9.77;;;5.37;;
10110;SDS011;5095;49.796;9.934;2022-11-14T11:05:19;8.07;;;5.97;;
10110;SDS011;5095;49.796;9.934;2022-11-14T11:07:46;6.57;;;5.13;;
10110;SDS011;5095;49.796;9.934;2022-11-14T11:10:32;9.33;;;6.00;;
10110;SDS011;5095;49.796;9.934;2022-11-14T11:13:34;7.27;;;5.00;;
10110;SDS011;5095;49.796;9.934;2022-11-14T11:16:01;8.80;;;6.60;;
10110;SDS011;5095;49.796;9.934;2022-11-14T11:18:31;6.57;;;5.40;;
10110;SDS011;5095;49.796;9.934;2022-11-14T11:21:02;10.83;;;6.70;;
10110;SDS011;5095;49.796;9.934;2022-11-14T11:23:29;7.37;;;5.30;;
10110;SDS011;5095;49.796;9.934;2022-11-14T11:25:59;7.77;;;6.37;;
10110;SDS011;5095;49.796;9.934;2022-11-14T11:28:30;8.60;;;6.70;;
10110;SDS011;5095;49.796;9.934;2022-11-14T11:30:58;6.23;;;4.40;;
10110;SDS011;5095;49.796;9.934;2022-11-14T11:33:25;9.88;;;7.32;;
10110;SDS011;5095;49.796;9.934;2022-11-14T11:35:55;6.73;;;5.43;;
10110;SDS011;5095;49.796;9.934;2022-11-14T11:38:22;8.30;;;5.97;;
10110;SDS011;5095;49.796;9.934;2022-11-14T11:40:50;6.30;;;4.97;;
10110;SDS011;5095;49.796;9.934;2022-11-14T11:43:22;7.33;;;5.07;;
10110;SDS011;5095;49.796;9.934;2022-11-14T11:45:51;7.20;;;4.87;;
10110;SDS011;5095;49.796;9.934;2022-11-14T11:48:20;7.90;;;6.27;;
10110;SDS011;5095;49.796;9.934;2022-11-14T11:50:46;5.97;;;4.40;;
10110;SDS011;5095;49.796;9.934;2022-11-14T11:55:59;6.90;;;4.43;;
10110;SDS011;5095;49.796;9.934;2022-11-14T11:58:30;8.97;;;5.83;;
10110;SDS011;5095;49.796;9.934;2022-11-14T12:00:57;9.53;;;6.33;;
10110;SDS011;5095;49.796;9.934;2022-11-14T12:03:24;6.23;;;5.00;;
10110;SDS011;5095;49.796;9.934;2022-11-14T12:08:30;7.90;;;6.30;;
10110;SDS011;5095;49.796;9.934;2022-11-14T12:10:58;8.03;;;5.23;;
10110;SDS011;5095;49.796;9.934;2022-11-14T12:13:33;12.97;;;9.03;;
10110;SDS011;5095;49.796;9.934;2022-11-14T12:16:26;11.60;;;7.07;;
10110;SDS011;5095;49.796;9.934;2022-11-14T12:24:03;12.00;;;6.23;;
10110;SDS011;5095;49.796;9.934;2022-11-14T12:31:34;11.90;;;5.77;;
10110;SDS011;5095;49.796;9.934;2022-11-14T12:34:24;7.13;;;5.33;;
10110;SDS011;5095;49.796;9.934;2022-11-14T12:36:48;7.90;;;6.13;;
10110;SDS011;5095;49.796;9.934;2022-11-14T12:39:24;8.53;;;5.47;;
10110;SDS011;5095;49.796;9.934;2022-11-14T12:41:59;6.47;;;4.37;;
10110;SDS011;5095;49.796;9.934;2022-11-14T12:47:26;7.53;;;5.73;;
10110;SDS011;5095;49.796;9.934;2022-11-14T12:54:58;5.70;;;4.53;;
10110;SDS011;5095;49.796;9.934;2022-11-14T12:57:27;6.43;;;4.77;;
10110;SDS011;5095;49.796;9.934;2022-11-14T13:00:14;6.60;;;4.30;;
10110;SDS011;5095;49.796;9.934;2022-11-14T13:05:27;4.83;;;4.10;;
10110;SDS011;5095;49.796;9.934;2022-11-14T13:10:40;6.30;;;4.47;;
10110;SDS011;5095;49.796;9.934;2022-11-14T13:13:07;11.20;;;6.73;;
10110;SDS011;5095;49.796;9.934;2022-11-14T13:15:53;8.33;;;5.70;;
10110;SDS011;5095;49.796;9.934;2022-11-14T13:21:35;7.53;;;5.70;;
10110;SDS011;5095;49.796;9.934;2022-11-14T13:24:10;10.37;;;5.17;;
10110;SDS011;5095;49.796;9.934;2022-11-14T13:26:37;8.88;;;6.10;;
10110;SDS011;5095;49.796;9.934;2022-11-14T13:29:04;8.70;;;5.53;;
10110;SDS011;5095;49.796;9.934;2022-11-14T13:31:49;5.37;;;3.90;;
10110;SDS011;5095;49.796;9.934;2022-11-14T13:36:57;11.40;;;4.20;;
10110;SDS011;5095;49.796;9.934;2022-11-14T13:50:28;6.47;;;4.90;;
10110;SDS011;5095;49.796;9.934;2022-11-14T13:52:46;7.40;;;5.10;;
10110;SDS011;5095;49.796;9.934;2022-11-14T13:55:20;8.20;;;5.50;;
10110;SDS011;5095;49.796;9.934;2022-11-14T13:57:51;6.00;;;3.50;;
10110;SDS011;5095;49.796;9.934;2022-11-14T14:00:21;7.00;;;5.10;;
10110;SDS011;5095;49.796;9.934;2022-11-14T14:02:51;9.33;;;5.87;;
10110;SDS011;5095;49.796;9.934;2022-11-14T14:08:20;6.83;;;4.70;;
10110;SDS011;5095;49.796;9.934;2022-11-14T14:10:54;8.37;;;5.13;;
10110;SDS011;5095;49.796;9.934;2022-11-14T14:18:27;8.97;;;5.50;;
10110;SDS011;5095;49.796;9.934;2022-11-14T14:21:05;6.83;;;4.80;;
10110;SDS011;5095;49.796;9.934;2022-11-14T14:28:35;8.23;;;5.03;;
10110;SDS011;5095;49.796;9.934;2022-11-14T14:31:11;7.33;;;4.20;;
10110;SDS011;5095;49.796;9.934;2022-11-14T14:33:45;9.60;;;4.60;;
10110;SDS011;5095;49.796;9.934;2022-11-14T14:36:20;7.67;;;5.00;;
10110;SDS011;5095;49.796;9.934;2022-11-14T14:38:46;6.57;;;4.33;;
10110;SDS011;5095;49.796;9.934;2022-11-14T14:41:13;6.40;;;4.80;;
10110;SDS011;5095;49.796;9.934;2022-11-14T14:43:41;5.60;;;4.00;;
10110;SDS011;5095;49.796;9.934;2022-11-14T14:46:08;6.77;;;4.53;;
10110;SDS011;5095;49.796;9.934;2022-11-14T14:51:32;9.30;;;4.77;;
10110;SDS011;5095;49.796;9.934;2022-11-14T14:53:59;7.60;;;4.43;;
10110;SDS011;5095;49.796;9.934;2022-11-14T14:56:25;8.87;;;5.33;;
10110;SDS011;5095;49.796;9.934;2022-11-14T14:58:51;9.50;;;6.17;;
10110;SDS011;5095;49.796;9.934;2022-11-14T15:01:18;9.33;;;6.27;;
10110;SDS011;5095;49.796;9.934;2022-11-14T15:03:46;9.97;;;6.30;;
10110;SDS011;5095;49.796;9.934;2022-11-14T15:08:46;8.63;;;5.90;;
10110;SDS011;5095;49.796;9.934;2022-11-14T15:11:13;10.87;;;6.77;;
10110;SDS011;5095;49.796;9.934;2022-11-14T15:13:39;10.00;;;6.47;;
10110;SDS011;5095;49.796;9.934;2022-11-14T15:16:06;9.87;;;6.40;;
10110;SDS011;5095;49.796;9.934;2022-11-14T15:18:32;8.93;;;6.00;;
10110;SDS011;5095;49.796;9.934;2022-11-14T15:21:05;12.30;;;5.87;;
10110;SDS011;5095;49.796;9.934;2022-11-14T15:23:31;9.20;;;5.50;;
10110;SDS011;5095;49.796;9.934;2022-11-14T15:26:02;10.13;;;5.60;;
10110;SDS011;5095;49.796;9.934;2022-11-14T15:28:29;8.87;;;5.13;;
10110;SDS011;5095;49.796;9.934;2022-11-14T15:30:58;8.37;;;5.20;;
10110;SDS011;5095;49.796;9.934;2022-11-14T15:33:29;11.33;;;5.20;;
10110;SDS011;5095;49.796;9.934;2022-11-14T15:36:06;7.37;;;5.03;;
10110;SDS011;5095;49.796;9.934;2022-11-14T15:38:32;7.97;;;5.20;;
10110;SDS011;5095;49.796;9.934;2022-11-14T15:48:53;8.23;;;6.20;;
10110;SDS011;5095;49.796;9.934;2022-11-14T15:51:39;11.20;;;5.87;;
10110;SDS011;5095;49.796;9.934;2022-11-14T15:54:17;11.67;;;6.07;;
10110;SDS011;5095;49.796;9.934;2022-11-14T15:56:43;11.53;;;5.53;;
10110;SDS011;5095;49.796;9.934;2022-11-14T15:59:09;9.77;;;5.63;;
10110;SDS011;5095;49.796;9.934;2022-11-14T16:01:36;9.83;;;5.57;;
10110;SDS011;5095;49.796;9.934;2022-11-14T16:04:02;10.50;;;6.43;;
10110;SDS011;5095;49.796;9.934;2022-11-14T16:06:29;13.83;;;6.13;;
10110;SDS011;5095;49.796;9.934;2022-11-14T16:08:56;11.87;;;6.43;;
10110;SDS011;5095;49.796;9.934;2022-11-14T16:11:22;10.60;;;6.63;;
10110;SDS011;5095;49.796;9.934;2022-11-14T16:13:48;10.53;;;7.30;;
10110;SDS011;5095;49.796;9.934;2022-11-14T16:16:14;11.20;;;7.13;;
10110;SDS011;5095;49.796;9.934;2022-11-14T16:18:40;14.77;;;7.10;;
10110;SDS011;5095;49.796;9.934;2022-11-14T16:21:08;20.97;;;13.77;;
10110;SDS011;5095;49.796;9.934;2022-11-14T16:23:34;12.03;;;7.67;;
10110;SDS011;5095;49.796;9.934;2022-11-14T16:26:00;13.67;;;7.27;;
10110;SDS011;5095;49.796;9.934;2022-11-14T16:28:26;10.70;;;7.07;;
10110;SDS011;5095;49.796;9.934;2022-11-14T16:30:52;12.07;;;7.30;;